Time;durP1;ratioP1;P1;durP2;ratioP2;P2;SDS_P1;SDS_P2;PMS_P1;PMS_P2;Temp;Humidity;BMP_temperature;BMP_pressure;BME280_temperature;BME280_humidity;BME280_pressure;Samples;Min_cycle;Max_cycle;Signal;HPM_P1;HPM_P2
2022/02/13 00:00:10;;;;;;;3.25;1.63;;;15.20;45.90;;;;;;5135316;27;20461;-49
2022/02/13 00:02:39;;;;;;;2.10;1.50;;;15.20;45.90;;;;;;5135644;27;20019;-54
2022/02/13 00:05:05;;;;;;;2.67;1.60;;;15.20;45.90;;;;;;5139462;27;20031;-61
2022/02/13 00:07:31;;;;;;;1.38;1.20;;;15.20;45.90;;;;;;5119262;27;20393;-51
2022/02/13 00:09:57;;;;;;;1.70;1.40;;;15.20;45.90;;;;;;5135695;27;20023;-61
2022/02/13 00:12:23;;;;;;;1.80;1.48;;;15.20;46.00;;;;;;5135990;27;20015;-52
2022/02/13 00:14:49;;;;;;;3.17;1.70;;;15.20;45.90;;;;;;5135228;27;20012;-52
2022/02/13 00:17:16;;;;;;;2.00;1.60;;;15.20;46.00;;;;;;5136001;27;20027;-51
2022/02/13 00:19:43;;;;;;;2.88;1.80;;;15.20;46.00;;;;;;5135777;27;20047;-53
2022/02/13 00:22:09;;;;;;;2.10;1.52;;;15.20;46.00;;;;;;5134340;27;20016;-57
2022/02/13 00:24:36;;;;;;;2.30;1.80;;;15.20;46.00;;;;;;5135258;27;20031;-54
2022/02/13 00:27:02;;;;;;;1.48;1.38;;;15.20;46.10;;;;;;5134441;28;20011;-53
2022/02/13 00:29:28;;;;;;;1.60;1.35;;;15.10;46.00;;;;;;5134417;28;20485;-55
2022/02/13 00:31:54;;;;;;;1.77;1.50;;;15.20;46.10;;;;;;5134616;27;20030;-52
2022/02/13 00:34:20;;;;;;;2.17;1.70;;;15.20;46.10;;;;;;5134178;28;20057;-54
2022/02/13 00:36:46;;;;;;;2.22;1.50;;;15.20;46.10;;;;;;5134429;28;20011;-58
2022/02/13 00:39:12;;;;;;;1.52;1.40;;;15.20;46.10;;;;;;5133973;27;20011;-51
2022/02/13 00:41:38;;;;;;;1.80;1.52;;;15.20;46.00;;;;;;5134376;28;20037;-54
2022/02/13 00:44:04;;;;;;;1.80;1.50;;;15.20;45.90;;;;;;5133240;28;20093;-58
2022/02/13 00:46:30;;;;;;;1.77;1.40;;;15.40;45.60;;;;;;5133545;28;20034;-55
2022/02/13 00:48:56;;;;;;;1.85;1.40;;;15.50;45.30;;;;;;5134359;28;20469;-54
2022/02/13 00:51:22;;;;;;;2.50;1.38;;;15.60;45.10;;;;;;5134564;27;20008;-52
2022/02/13 00:53:48;;;;;;;1.95;1.48;;;15.60;45.10;;;;;;5134234;28;20389;-51
2022/02/13 00:56:14;;;;;;;2.50;1.48;;;15.60;45.10;;;;;;5134948;27;20018;-53
2022/02/13 00:58:41;;;;;;;1.75;1.40;;;15.70;45.00;;;;;;5134737;27;20035;-52
2022/02/13 01:01:07;;;;;;;1.63;1.42;;;15.70;44.90;;;;;;5133597;28;20078;-52
2022/02/13 01:03:33;;;;;;;1.73;1.30;;;15.80;44.80;;;;;;5132719;28;20102;-50
2022/02/13 01:06:00;;;;;;;2.13;1.40;;;15.80;44.70;;;;;;5133711;27;20023;-49
2022/02/13 01:08:26;;;;;;;5.28;1.50;;;15.90;44.40;;;;;;5132542;28;20016;-50
2022/02/13 01:10:52;;;;;;;1.30;1.20;;;16.00;44.20;;;;;;5132527;28;20374;-50
2022/02/13 01:13:18;;;;;;;2.22;1.70;;;16.10;44.10;;;;;;5133531;27;20015;-51
2022/02/13 01:15:44;;;;;;;1.85;1.60;;;16.20;44.00;;;;;;5133775;27;20023;-50
2022/02/13 01:18:10;;;;;;;1.80;1.30;;;16.30;43.80;;;;;;5133202;27;20012;-52
2022/02/13 01:20:36;;;;;;;1.55;1.40;;;16.40;43.70;;;;;;5133437;27;20481;-51
2022/02/13 01:23:03;;;;;;;1.45;1.30;;;16.40;43.40;;;;;;5132385;28;20025;-53
2022/02/13 01:25:28;;;;;;;1.83;1.50;;;16.50;43.40;;;;;;5133599;28;20522;-54
2022/02/13 01:27:55;;;;;;;1.83;1.45;;;16.60;43.30;;;;;;5115363;28;20020;-51
2022/02/13 01:30:21;;;;;;;1.88;1.30;;;16.60;43.10;;;;;;5134528;27;20092;-54
2022/02/13 01:32:48;;;;;;;2.17;1.48;;;16.70;43.10;;;;;;5136058;27;20064;-54
2022/02/13 01:35:14;;;;;;;1.92;1.50;;;16.70;43.00;;;;;;5137616;27;20011;-54
2022/02/13 01:37:39;;;;;;;2.00;1.65;;;16.80;42.90;;;;;;5137934;27;20015;-54
2022/02/13 01:40:06;;;;;;;1.80;1.48;;;16.80;42.80;;;;;;5136015;27;20047;-56
2022/02/13 01:42:32;;;;;;;1.55;1.35;;;16.80;42.70;;;;;;5135848;27;20023;-55
2022/02/13 01:44:58;;;;;;;1.92;1.65;;;16.80;42.80;;;;;;5137848;27;20362;-57
2022/02/13 01:47:24;;;;;;;2.17;1.17;;;16.80;42.80;;;;;;5139556;27;20385;-56
2022/02/13 01:49:50;;;;;;;2.13;1.58;;;16.80;42.80;;;;;;5138418;27;20378;-54
2022/02/13 01:52:16;;;;;;;1.38;1.02;;;16.80;42.80;;;;;;5135977;27;20552;-56
2022/02/13 01:54:42;;;;;;;1.50;1.13;;;16.80;42.80;;;;;;5137324;27;20007;-56
2022/02/13 01:57:11;;;;;;;1.85;1.45;;;16.80;42.70;;;;;;5136332;27;20023;-55
2022/02/13 01:59:37;;;;;;;1.67;1.27;;;16.90;43.30;;;;;;5137771;27;20021;-56
2022/02/13 02:02:03;;;;;;;1.75;1.30;;;16.90;42.70;;;;;;5139814;27;20019;-56
2022/02/13 02:04:29;;;;;;;1.17;1.08;;;16.90;42.60;;;;;;5139088;27;20027;-56
2022/02/13 02:06:55;;;;;;;2.40;1.70;;;16.90;42.60;;;;;;5140795;27;20019;-57
2022/02/13 02:09:24;;;;;;;1.38;1.23;;;16.90;42.60;;;;;;5139129;27;20060;-54
2022/02/13 02:11:50;;;;;;;2.22;1.58;;;16.90;42.60;;;;;;5140213;27;20458;-61
2022/02/13 02:14:15;;;;;;;2.40;1.42;;;16.90;42.70;;;;;;5140156;27;20090;-56
2022/02/13 02:16:42;;;;;;;1.83;1.42;;;16.90;42.80;;;;;;5139477;27;20091;-56
2022/02/13 02:19:08;;;;;;;1.70;1.35;;;16.90;42.70;;;;;;5138100;27;20043;-55
2022/02/13 02:21:45;;;;;;;1.42;1.20;;;16.90;43.20;;;;;;5140236;27;20043;-58
2022/02/13 02:24:12;;;;;;;3.22;1.48;;;16.90;42.70;;;;;;5138022;27;20011;-55
2022/02/13 02:26:38;;;;;;;2.35;1.60;;;16.90;42.80;;;;;;5137190;27;20022;-55
2022/02/13 02:29:04;;;;;;;1.40;1.30;;;16.90;42.80;;;;;;5136852;27;20090;-54
2022/02/13 02:31:33;;;;;;;1.65;1.05;;;16.90;42.90;;;;;;5136608;27;20098;-55
2022/02/13 02:33:59;;;;;;;3.08;1.35;;;16.90;42.90;;;;;;5136691;27;20064;-54
2022/02/13 02:36:26;;;;;;;2.03;1.13;;;16.90;43.00;;;;;;5136285;27;20016;-56
2022/02/13 02:38:52;;;;;;;1.23;1.13;;;16.80;42.90;;;;;;5136604;27;20015;-55
2022/02/13 02:41:18;;;;;;;1.40;1.30;;;16.80;42.90;;;;;;5135910;27;20015;-55
2022/02/13 02:43:44;;;;;;;1.90;1.45;;;16.90;42.90;;;;;;5135828;27;20582;-56
2022/02/13 02:46:10;;;;;;;2.13;1.48;;;16.90;43.00;;;;;;5135854;27;20073;-53
2022/02/13 02:48:36;;;;;;;1.85;1.40;;;16.90;42.90;;;;;;5135744;27;20023;-52
2022/02/13 02:51:02;;;;;;;1.77;1.20;;;16.90;43.00;;;;;;5135866;27;20030;-53
2022/02/13 02:53:29;;;;;;;1.80;1.30;;;16.90;42.90;;;;;;5136055;27;20465;-53
2022/02/13 02:55:55;;;;;;;1.30;1.20;;;16.90;42.90;;;;;;5135852;27;20030;-56
2022/02/13 02:58:21;;;;;;;1.65;1.30;;;16.80;42.90;;;;;;5135792;27;20015;-54
2022/02/13 03:00:48;;;;;;;1.92;1.30;;;16.90;42.90;;;;;;5135804;27;20515;-53
2022/02/13 03:03:13;;;;;;;1.70;1.50;;;16.90;42.90;;;;;;5136060;27;20065;-52
2022/02/13 03:05:40;;;;;;;1.83;1.30;;;16.90;42.90;;;;;;5135947;27;20015;-51
2022/02/13 03:08:06;;;;;;;1.75;1.30;;;16.90;42.90;;;;;;5134773;27;20046;-53
2022/02/13 03:10:32;;;;;;;1.25;1.15;;;16.90;42.90;;;;;;5136037;27;20023;-53
2022/02/13 03:12:58;;;;;;;1.33;1.23;;;16.90;42.90;;;;;;5135701;27;20039;-56
2022/02/13 03:15:27;;;;;;;1.70;1.23;;;16.90;42.80;;;;;;5135998;27;20026;-52
2022/02/13 03:17:54;;;;;;;1.40;1.25;;;16.90;42.90;;;;;;5135735;27;20027;-53
2022/02/13 03:20:20;;;;;;;1.23;0.98;;;16.90;42.80;;;;;;5135727;27;20805;-52
2022/02/13 03:22:46;;;;;;;2.15;1.20;;;17.00;42.90;;;;;;5136270;27;20517;-53
2022/02/13 03:25:12;;;;;;;1.42;1.10;;;17.00;42.90;;;;;;5135591;27;20093;-56
2022/02/13 03:27:38;;;;;;;1.42;1.30;;;16.90;42.80;;;;;;5135383;27;20045;-55
2022/02/13 03:30:07;;;;;;;1.10;1.00;;;16.90;42.90;;;;;;5135271;27;20554;-50
2022/02/13 03:32:33;;;;;;;2.10;1.27;;;16.90;42.90;;;;;;5135331;27;20035;-53
2022/02/13 03:34:58;;;;;;;1.63;1.25;;;16.90;43.00;;;;;;5136269;27;20040;-51
2022/02/13 03:37:24;;;;;;;1.40;1.25;;;16.90;43.00;;;;;;5135908;27;20077;-51
2022/02/13 03:39:50;;;;;;;1.23;1.08;;;16.90;43.00;;;;;;5134879;27;20094;-49
2022/02/13 03:42:16;;;;;;;1.30;1.20;;;16.90;43.00;;;;;;5134730;27;20015;-52
2022/02/13 03:44:42;;;;;;;1.95;1.20;;;16.90;43.00;;;;;;5134311;27;20504;-48
2022/02/13 03:47:08;;;;;;;1.38;1.20;;;16.90;43.00;;;;;;5135885;27;20435;-52
2022/02/13 03:49:33;;;;;;;1.77;1.30;;;16.90;42.90;;;;;;5116683;27;20031;-50
2022/02/13 03:51:59;;;;;;;1.30;0.93;;;17.00;43.00;;;;;;5134935;27;20501;-51
2022/02/13 03:54:25;;;;;;;2.58;1.38;;;16.90;42.90;;;;;;5135147;27;20038;-50
2022/02/13 03:56:50;;;;;;;1.33;1.05;;;16.90;43.00;;;;;;5135326;27;20504;-54
2022/02/13 03:59:16;;;;;;;1.30;1.20;;;17.00;43.00;;;;;;5133264;27;20469;-52
2022/02/13 04:01:42;;;;;;;2.45;1.17;;;16.90;42.90;;;;;;5134745;27;20031;-52
2022/02/13 04:04:08;;;;;;;1.25;1.10;;;17.00;43.00;;;;;;5134960;27;20042;-52
2022/02/13 04:06:34;;;;;;;2.63;1.30;;;17.00;43.00;;;;;;5134786;27;20473;-52
2022/02/13 04:09:01;;;;;;;1.42;1.20;;;17.00;42.90;;;;;;5134801;27;20023;-48
2022/02/13 04:11:26;;;;;;;3.13;1.25;;;17.00;42.90;;;;;;5133891;27;20023;-57
2022/02/13 04:13:52;;;;;;;1.55;1.15;;;17.00;43.00;;;;;;5134462;27;20022;-51
2022/02/13 04:16:18;;;;;;;1.75;1.27;;;17.00;43.00;;;;;;5134491;27;20051;-52
2022/02/13 04:18:46;;;;;;;1.65;1.33;;;17.00;42.90;;;;;;5132922;27;20043;-50
2022/02/13 04:21:12;;;;;;;1.42;1.17;;;17.00;42.90;;;;;;5133769;27;20062;-53
2022/02/13 04:23:38;;;;;;;1.35;1.20;;;16.90;43.00;;;;;;5134684;27;20019;-51
2022/02/13 04:26:04;;;;;;;1.38;1.25;;;17.00;43.00;;;;;;5134836;28;20042;-51
2022/02/13 04:28:31;;;;;;;1.90;1.20;;;17.00;43.10;;;;;;5133428;28;20015;-51
2022/02/13 04:30:57;;;;;;;2.83;1.13;;;17.00;43.10;;;;;;5134641;28;20042;-51
2022/02/13 04:33:23;;;;;;;1.30;1.05;;;17.00;43.10;;;;;;5133959;28;20019;-53
2022/02/13 04:35:50;;;;;;;1.98;1.30;;;17.00;43.00;;;;;;5135122;28;20012;-51
2022/02/13 04:38:16;;;;;;;2.15;1.20;;;17.00;43.10;;;;;;5134361;28;20088;-53
2022/02/13 04:40:42;;;;;;;1.30;1.20;;;16.90;43.00;;;;;;5135141;28;20026;-52
2022/02/13 04:43:08;;;;;;;1.77;1.30;;;16.90;43.10;;;;;;5133749;28;20020;-52
2022/02/13 04:45:34;;;;;;;1.50;1.40;;;16.90;43.20;;;;;;5134189;27;20015;-50
2022/02/13 04:48:00;;;;;;;1.40;1.27;;;16.90;43.70;;;;;;5133809;28;20068;-53
2022/02/13 04:50:26;;;;;;;1.55;1.20;;;17.00;43.10;;;;;;5134265;28;20031;-58
2022/02/13 04:52:53;;;;;;;1.23;1.00;;;16.90;43.10;;;;;;5134583;27;20015;-53
2022/02/13 04:55:19;;;;;;;1.88;1.40;;;16.90;43.10;;;;;;5134485;27;20141;-51
2022/02/13 04:57:45;;;;;;;1.65;1.35;;;16.90;43.10;;;;;;5132868;28;20046;-56
2022/02/13 05:00:12;;;;;;;1.40;1.17;;;17.00;43.10;;;;;;5132905;28;20039;-50
2022/02/13 05:02:40;;;;;;;1.48;1.10;;;17.00;43.10;;;;;;5134085;27;20031;-49
2022/02/13 05:05:06;;;;;;;1.20;1.10;;;16.90;43.10;;;;;;5137391;27;20042;-50
2022/02/13 05:07:32;;;;;;;1.38;1.23;;;17.00;43.20;;;;;;5137512;27;20023;-53
2022/02/13 05:09:58;;;;;;;1.50;1.25;;;16.90;43.10;;;;;;5138097;27;20027;-51
2022/02/13 05:12:24;;;;;;;1.95;1.02;;;17.00;43.20;;;;;;5138760;27;20019;-51
2022/02/13 05:14:50;;;;;;;1.33;1.20;;;17.00;43.20;;;;;;5139102;27;20067;-51
2022/02/13 05:17:16;;;;;;;1.15;1.05;;;17.00;43.20;;;;;;5137613;27;20042;-52
2022/02/13 05:19:42;;;;;;;1.63;1.17;;;17.00;43.10;;;;;;5137011;27;20054;-51
2022/02/13 05:22:08;;;;;;;1.45;1.20;;;17.00;43.20;;;;;;5138382;27;20011;-49
2022/02/13 05:24:36;;;;;;;1.20;1.10;;;17.00;43.20;;;;;;5138056;27;20027;-48
2022/02/13 05:27:05;;;;;;;1.52;1.13;;;17.00;43.10;;;;;;5138298;27;20014;-49
2022/02/13 05:29:31;;;;;;;1.48;1.20;;;17.00;43.10;;;;;;5137784;27;20090;-52
2022/02/13 05:31:57;;;;;;;1.40;1.10;;;17.00;43.10;;;;;;5138489;27;20020;-49
2022/02/13 05:34:23;;;;;;;1.35;1.13;;;17.00;43.10;;;;;;5136968;27;20056;-52
2022/02/13 05:36:49;;;;;;;1.52;1.10;;;17.00;43.10;;;;;;5137138;27;20090;-55
2022/02/13 05:39:16;;;;;;;1.38;1.17;;;17.00;43.10;;;;;;5137008;27;20035;-57
2022/02/13 05:41:42;;;;;;;1.10;1.00;;;17.00;43.10;;;;;;5137978;27;20462;-56
2022/02/13 05:44:08;;;;;;;1.35;1.00;;;17.00;43.10;;;;;;5139547;27;20012;-59
2022/02/13 05:46:34;;;;;;;1.10;1.00;;;17.00;43.10;;;;;;5140651;27;20018;-49
2022/02/13 05:49:00;;;;;;;1.25;0.88;;;17.00;43.20;;;;;;5139939;27;20735;-52
2022/02/13 05:51:26;;;;;;;0.98;0.88;;;17.00;43.20;;;;;;5138596;27;20007;-52
2022/02/13 05:53:55;;;;;;;1.38;1.20;;;17.00;43.10;;;;;;5138883;27;20484;-52
2022/02/13 05:56:21;;;;;;;3.47;0.90;;;17.00;43.10;;;;;;5138717;27;20054;-52
2022/02/13 05:58:47;;;;;;;1.75;1.27;;;17.00;43.10;;;;;;5139253;27;20035;-54
2022/02/13 06:01:13;;;;;;;1.27;1.10;;;17.00;43.10;;;;;;5140531;27;20016;-53
2022/02/13 06:03:39;;;;;;;1.30;1.02;;;17.00;43.10;;;;;;5141330;27;20099;-57
2022/02/13 06:06:05;;;;;;;2.13;1.40;;;17.00;43.20;;;;;;5140257;27;20489;-54
2022/02/13 06:08:31;;;;;;;1.38;1.05;;;17.00;43.20;;;;;;5139525;27;20148;-50
2022/02/13 06:10:57;;;;;;;1.27;1.17;;;17.00;43.10;;;;;;5139336;27;20110;-51
2022/02/13 06:13:24;;;;;;;1.23;1.13;;;17.00;43.10;;;;;;5139638;27;20003;-53
2022/02/13 06:15:49;;;;;;;0.98;0.85;;;17.00;43.10;;;;;;5136784;27;20068;-51
2022/02/13 06:18:15;;;;;;;1.10;1.00;;;17.10;43.10;;;;;;5137843;27;20094;-51
2022/02/13 06:20:41;;;;;;;0.98;0.88;;;17.10;43.10;;;;;;5136325;27;20023;-50
2022/02/13 06:23:08;;;;;;;1.42;1.10;;;17.00;43.10;;;;;;5137427;27;20027;-51
2022/02/13 06:25:34;;;;;;;1.10;1.00;;;17.10;43.10;;;;;;5137417;27;20019;-50
2022/02/13 06:28:00;;;;;;;1.92;1.30;;;17.10;43.10;;;;;;5137516;27;20536;-51
2022/02/13 06:30:26;;;;;;;1.67;1.00;;;17.10;43.00;;;;;;5137052;27;20057;-50
2022/02/13 06:32:52;;;;;;;1.50;1.30;;;17.10;43.10;;;;;;5136042;27;20015;-50
2022/02/13 06:35:18;;;;;;;1.42;1.10;;;17.10;43.10;;;;;;5135637;27;20027;-53
2022/02/13 06:37:44;;;;;;;1.20;0.95;;;17.00;43.10;;;;;;5119219;27;20016;-50
2022/02/13 06:40:10;;;;;;;1.30;1.20;;;17.10;43.10;;;;;;5136710;27;20027;-58
2022/02/13 06:42:37;;;;;;;1.85;1.08;;;17.10;43.10;;;;;;5137066;27;20047;-55
2022/02/13 06:45:02;;;;;;;1.40;1.27;;;17.10;43.10;;;;;;5136671;27;20016;-51
2022/02/13 06:47:28;;;;;;;1.08;0.90;;;17.10;43.00;;;;;;5136974;27;20048;-50
2022/02/13 06:49:54;;;;;;;1.40;1.10;;;17.10;43.00;;;;;;5137197;27;20118;-51
2022/02/13 06:52:20;;;;;;;1.02;0.93;;;17.10;43.00;;;;;;5137089;27;20011;-54
2022/02/13 06:54:47;;;;;;;1.10;1.00;;;17.10;43.10;;;;;;5135352;27;20525;-52
2022/02/13 06:57:13;;;;;;;0.85;0.80;;;17.10;43.00;;;;;;5134869;27;20019;-49
2022/02/13 06:59:41;;;;;;;2.00;1.27;;;17.10;43.10;;;;;;5136197;27;20045;-56
2022/02/13 07:02:09;;;;;;;1.27;0.95;;;17.10;43.10;;;;;;5135798;27;20031;-48
2022/02/13 07:04:38;;;;;;;1.27;0.90;;;17.10;43.10;;;;;;5135957;27;20023;-50
2022/02/13 07:07:05;;;;;;;1.40;1.13;;;17.10;43.60;;;;;;5135552;27;20026;-54
2022/02/13 07:09:32;;;;;;;1.38;0.90;;;17.10;43.60;;;;;;5135813;27;20023;-51
2022/02/13 07:12:04;;;;;;;1.50;1.10;;;17.10;43.00;;;;;;5136065;27;19999;-51
2022/02/13 07:14:31;;;;;;;1.77;0.98;;;17.10;43.00;;;;;;5135477;27;20043;-51
2022/02/13 07:16:57;;;;;;;1.10;1.00;;;17.10;43.00;;;;;;5134436;27;20015;-52
2022/02/13 07:19:25;;;;;;;1.33;1.00;;;17.10;42.90;;;;;;5135099;27;20050;-52
2022/02/13 07:21:50;;;;;;;1.98;1.23;;;17.10;43.00;;;;;;5135513;27;20039;-49
2022/02/13 07:24:17;;;;;;;1.02;0.85;;;17.10;43.00;;;;;;5134251;27;20023;-50
2022/02/13 07:26:42;;;;;;;1.50;1.15;;;17.10;43.00;;;;;;5133625;27;20041;-50
2022/02/13 07:29:09;;;;;;;1.20;1.05;;;17.10;43.00;;;;;;5135942;27;20097;-53
2022/02/13 07:31:35;;;;;;;1.27;0.90;;;17.10;43.00;;;;;;5135832;27;20007;-51
2022/02/13 07:34:01;;;;;;;1.23;1.02;;;17.10;43.00;;;;;;5135333;27;20036;-49
2022/02/13 07:36:29;;;;;;;1.20;0.90;;;17.10;42.90;;;;;;5137976;27;20023;-51
2022/02/13 07:38:55;;;;;;;1.20;1.10;;;17.10;42.90;;;;;;5138325;27;20007;-51
2022/02/13 07:41:21;;;;;;;1.45;1.00;;;17.10;43.00;;;;;;5138002;27;20046;-50
2022/02/13 07:43:47;;;;;;;1.63;1.20;;;17.10;43.10;;;;;;5135657;27;20082;-51
2022/02/13 07:46:13;;;;;;;1.23;1.10;;;17.10;43.10;;;;;;5136056;27;20537;-50
2022/02/13 07:48:39;;;;;;;1.38;1.05;;;17.10;43.10;;;;;;5136113;27;20047;-51
2022/02/13 07:51:05;;;;;;;1.08;0.98;;;17.10;43.10;;;;;;5135244;27;20080;-49
2022/02/13 07:53:31;;;;;;;1.25;0.90;;;17.10;43.00;;;;;;5136903;27;20019;-50
2022/02/13 07:55:57;;;;;;;1.30;1.10;;;17.10;43.00;;;;;;5137449;27;20019;-50
2022/02/13 07:58:23;;;;;;;1.65;1.00;;;17.10;43.00;;;;;;5137794;27;20019;-53
2022/02/13 08:00:49;;;;;;;1.25;1.00;;;17.10;43.00;;;;;;5138601;27;20430;-51
2022/02/13 08:03:15;;;;;;;2.88;1.08;;;17.10;42.90;;;;;;5138427;27;20516;-50
2022/02/13 08:05:41;;;;;;;1.10;1.00;;;17.10;42.90;;;;;;5137545;27;20019;-51
2022/02/13 08:08:07;;;;;;;1.38;0.95;;;17.20;42.90;;;;;;5139998;27;20473;-47
2022/02/13 08:10:33;;;;;;;1.10;0.90;;;17.10;43.00;;;;;;5140587;27;20035;-48
2022/02/13 08:12:58;;;;;;;1.33;1.00;;;17.10;43.00;;;;;;5137840;27;20447;-51
2022/02/13 08:15:24;;;;;;;1.17;0.90;;;17.10;43.00;;;;;;5139629;27;20011;-47
2022/02/13 08:17:50;;;;;;;1.30;1.20;;;17.10;43.00;;;;;;5138279;27;20063;-47
2022/02/13 08:20:16;;;;;;;1.20;1.02;;;17.20;42.90;;;;;;5136145;27;20414;-52
2022/02/13 08:22:42;;;;;;;1.15;1.05;;;17.20;42.90;;;;;;5137662;27;20123;-49
2022/02/13 08:25:08;;;;;;;1.17;0.98;;;17.20;43.00;;;;;;5137362;28;20027;-50
2022/02/13 08:27:34;;;;;;;0.98;0.88;;;17.10;42.90;;;;;;5136818;28;20023;-54
2022/02/13 08:30:00;;;;;;;1.40;1.20;;;17.20;43.00;;;;;;5135726;28;20051;-52
2022/02/13 08:32:26;;;;;;;1.20;0.95;;;17.20;43.00;;;;;;5136626;28;20023;-51
2022/02/13 08:34:55;;;;;;;0.85;0.80;;;17.20;42.90;;;;;;5133606;28;20003;-53
2022/02/13 08:37:22;;;;;;;1.30;1.10;;;17.20;42.90;;;;;;5134791;27;20068;-50
2022/02/13 08:39:49;;;;;;;1.38;1.15;;;17.20;42.80;;;;;;5136846;27;20019;-51
2022/02/13 08:42:15;;;;;;;1.35;0.98;;;17.20;42.80;;;;;;5138660;27;20022;-52
2022/02/13 08:44:41;;;;;;;1.00;0.90;;;17.20;42.80;;;;;;5138836;27;20029;-58
2022/02/13 08:47:08;;;;;;;1.60;1.17;;;17.20;42.80;;;;;;5138485;27;20027;-56
2022/02/13 08:49:33;;;;;;;1.08;0.90;;;17.20;42.80;;;;;;5137066;27;20027;-51
2022/02/13 08:52:00;;;;;;;1.15;1.05;;;17.20;42.80;;;;;;5120689;27;20037;-52
2022/02/13 08:54:26;;;;;;;1.05;0.95;;;17.20;42.80;;;;;;5138428;27;20489;-51
2022/02/13 08:56:54;;;;;;;1.40;1.05;;;17.20;42.80;;;;;;5138394;27;20018;-56
2022/02/13 08:59:19;;;;;;;2.05;0.95;;;17.20;42.80;;;;;;5137267;27;20098;-52
2022/02/13 09:01:45;;;;;;;1.45;1.20;;;17.20;42.70;;;;;;5138215;27;20508;-51
2022/02/13 09:04:11;;;;;;;0.90;0.88;;;17.30;42.70;;;;;;5138382;27;20033;-51
2022/02/13 09:06:37;;;;;;;1.48;1.00;;;17.20;42.60;;;;;;5138526;27;20502;-50
2022/02/13 09:09:03;;;;;;;1.50;1.00;;;17.20;42.60;;;;;;5137452;27;20026;-49
2022/02/13 09:11:31;;;;;;;1.20;0.73;;;17.20;42.70;;;;;;5137818;27;20019;-52
2022/02/13 09:13:57;;;;;;;2.08;1.20;;;17.20;42.60;;;;;;5137781;27;20056;-50
2022/02/13 09:16:23;;;;;;;1.00;0.90;;;17.30;42.70;;;;;;5139019;27;20476;-50
2022/02/13 09:18:49;;;;;;;1.00;0.80;;;17.30;42.70;;;;;;5137976;27;20080;-51
2022/02/13 09:21:15;;;;;;;1.13;1.00;;;17.30;42.70;;;;;;5139065;27;20045;-50
2022/02/13 09:23:41;;;;;;;0.85;0.80;;;17.30;42.60;;;;;;5120348;27;20474;-53
2022/02/13 09:26:07;;;;;;;1.42;1.15;;;17.30;42.60;;;;;;5137537;27;20030;-47
2022/02/13 09:28:33;;;;;;;1.08;0.90;;;17.30;42.60;;;;;;5138901;27;20012;-50
2022/02/13 09:31:03;;;;;;;2.42;1.13;;;17.30;42.60;;;;;;5138571;27;20102;-47
2022/02/13 09:33:29;;;;;;;1.98;1.00;;;17.30;42.60;;;;;;5139261;27;20065;-51
2022/02/13 09:35:56;;;;;;;1.65;0.95;;;17.30;42.60;;;;;;5139311;27;20102;-49
2022/02/13 09:38:23;;;;;;;1.10;0.90;;;17.30;42.60;;;;;;5139681;27;20007;-46
2022/02/13 09:40:48;;;;;;;1.35;1.00;;;17.30;42.50;;;;;;5137827;27;20106;-49
2022/02/13 09:43:15;;;;;;;1.55;1.08;;;17.30;42.50;;;;;;5138181;27;20019;-51
2022/02/13 09:45:44;;;;;;;1.30;1.00;;;17.30;42.50;;;;;;5137737;27;20422;-48
2022/02/13 09:48:35;;;;;;;1.58;0.82;;;17.30;42.50;;;;;;5137527;27;20015;-49
2022/02/13 09:51:02;;;;;;;;;;;17.30;42.50;;;;;;5136670;27;20030;-49
2022/02/13 09:53:34;;;;;;;1.42;0.80;;;17.30;42.50;;;;;;5137259;27;19910;-51
2022/02/13 09:56:00;;;;;;;0.95;0.80;;;17.30;42.50;;;;;;5137213;27;20016;-51
2022/02/13 09:58:26;;;;;;;1.50;1.10;;;17.20;43.10;;;;;;5138418;27;20015;-51
2022/02/13 10:00:56;;;;;;;1.25;0.85;;;17.20;42.60;;;;;;5138258;27;20026;-53
2022/02/13 10:03:26;;;;;;;1.08;0.90;;;17.20;42.60;;;;;;5142915;27;20040;-49
2022/02/13 10:05:53;;;;;;;1.08;0.80;;;17.20;42.70;;;;;;5144933;27;20030;-49
2022/02/13 10:08:26;;;;;;;0.93;0.73;;;17.20;42.70;;;;;;5143586;27;20039;-51
2022/02/13 10:11:14;;;;;;;1.00;0.90;;;17.20;42.70;;;;;;5144134;27;20469;-52
2022/02/13 10:13:48;;;;;;;1.63;1.00;;;17.10;42.80;;;;;;5144348;27;20027;-50
2022/02/13 10:16:17;;;;;;;1.13;0.88;;;17.10;42.90;;;;;;5144915;27;20030;-50
2022/02/13 10:18:47;;;;;;;1.10;0.82;;;17.10;42.90;;;;;;5138903;27;20051;-54
2022/02/13 10:21:38;;;;;;;1.42;1.00;;;17.00;43.00;;;;;;5137928;27;20106;-51
2022/02/13 10:24:15;;;;;;;0.93;0.77;;;17.00;43.10;;;;;;5137089;27;20019;-53
2022/02/13 10:26:42;;;;;;;1.40;1.10;;;17.00;43.10;;;;;;5137876;27;20019;-53
2022/02/13 10:29:10;;;;;;;1.08;1.00;;;17.00;43.10;;;;;;5137964;27;20030;-55
2022/02/13 10:31:37;;;;;;;0.98;0.82;;;17.00;43.10;;;;;;5137552;27;20000;-52
2022/02/13 10:34:03;;;;;;;1.42;1.05;;;16.90;43.10;;;;;;5136908;27;20034;-50
2022/02/13 10:36:28;;;;;;;1.45;0.73;;;16.90;43.20;;;;;;5135661;27;20494;-51
2022/02/13 10:38:54;;;;;;;1.75;0.98;;;16.90;43.20;;;;;;5136787;27;20369;-53
2022/02/13 10:41:22;;;;;;;1.15;1.00;;;16.90;43.30;;;;;;5135727;27;20499;-51
2022/02/13 10:43:53;;;;;;;1.08;0.90;;;16.80;43.20;;;;;;5136674;27;20043;-50
2022/02/13 10:46:19;;;;;;;1.00;0.90;;;16.80;43.30;;;;;;5136810;27;20068;-50
2022/02/13 10:48:45;;;;;;;1.20;0.95;;;16.80;43.40;;;;;;5135610;27;20045;-54
2022/02/13 10:51:14;;;;;;;1.27;0.90;;;16.80;43.50;;;;;;5136665;27;20035;-52
2022/02/13 10:53:43;;;;;;;1.38;1.05;;;16.70;43.40;;;;;;5136541;27;20011;-56
2022/02/13 10:56:09;;;;;;;0.88;0.80;;;16.70;43.50;;;;;;5136669;27;20088;-54
2022/02/13 10:58:36;;;;;;;0.98;0.88;;;16.80;43.50;;;;;;5118657;27;20043;-53
2022/02/13 11:01:02;;;;;;;1.10;1.00;;;16.70;43.50;;;;;;5134920;27;20102;-51
2022/02/13 11:03:31;;;;;;;0.80;0.80;;;16.70;43.60;;;;;;5116620;27;20023;-50
2022/02/13 11:06:02;;;;;;;1.17;1.08;;;16.70;43.60;;;;;;5136433;27;20022;-52
2022/02/13 11:08:30;;;;;;;0.88;0.88;;;16.60;43.60;;;;;;5136275;27;20106;-53
2022/02/13 11:10:57;;;;;;;1.15;1.02;;;16.60;43.70;;;;;;5135234;27;20064;-51
2022/02/13 11:13:26;;;;;;;0.98;0.88;;;16.60;43.70;;;;;;5136287;27;20015;-56
2022/02/13 11:15:53;;;;;;;1.50;1.00;;;16.60;43.70;;;;;;5134554;27;20011;-52
2022/02/13 11:18:36;;;;;;;1.00;0.85;;;16.60;43.80;;;;;;5134771;27;20257;-50
2022/02/13 11:21:03;;;;;;;1.15;1.00;;;16.60;43.80;;;;;;5119473;27;20024;-51
2022/02/13 11:23:31;;;;;;;1.10;0.73;;;16.60;43.80;;;;;;5119020;27;20007;-49
2022/02/13 11:26:07;;;;;;;1.77;1.05;;;16.60;43.80;;;;;;5136541;27;20042;-51
2022/02/13 11:28:42;;;;;;;1.05;0.90;;;16.60;43.80;;;;;;5135290;27;20072;-50
2022/02/13 11:31:28;;;;;;;1.23;1.00;;;16.50;43.70;;;;;;5136369;27;20023;-49
2022/02/13 11:33:54;;;;;;;1.13;0.98;;;16.50;43.80;;;;;;5136109;27;20031;-51
2022/02/13 11:36:20;;;;;;;1.05;0.90;;;16.50;43.80;;;;;;5135713;27;20011;-47
2022/02/13 11:38:46;;;;;;;1.00;0.90;;;16.50;43.90;;;;;;5133986;27;20008;-52
2022/02/13 11:41:16;;;;;;;0.80;0.80;;;16.50;43.90;;;;;;5135251;27;20033;-52
2022/02/13 11:44:09;;;;;;;1.10;1.00;;;16.50;43.90;;;;;;5134967;27;20011;-52
2022/02/13 11:46:40;;;;;;;1.13;1.00;;;16.50;44.00;;;;;;5135330;27;20023;-49
2022/02/13 11:49:11;;;;;;;1.88;0.80;;;16.50;43.90;;;;;;5135293;27;20019;-48
2022/02/13 11:51:45;;;;;;;1.13;1.00;;;16.50;44.00;;;;;;5135270;27;20019;-47
2022/02/13 11:54:40;;;;;;;1.50;1.10;;;16.40;43.90;;;;;;5135166;27;20064;-48
2022/02/13 11:57:16;;;;;;;1.10;0.82;;;16.50;43.90;;;;;;5134964;27;20008;-48
2022/02/13 11:59:51;;;;;;;4.57;1.17;;;16.40;43.90;;;;;;5134989;27;20023;-48
2022/02/13 12:02:40;;;;;;;1.10;1.00;;;16.40;43.90;;;;;;5135134;27;20057;-48
2022/02/13 12:05:06;;;;;;;1.48;1.00;;;16.40;43.90;;;;;;5135148;27;20023;-47
2022/02/13 12:07:45;;;;;;;1.30;1.10;;;16.40;44.00;;;;;;5135065;27;20019;-48
2022/02/13 12:10:39;;;;;;;1.00;0.90;;;16.40;44.00;;;;;;5135709;27;20467;-47
2022/02/13 12:13:11;;;;;;;1.58;1.20;;;16.40;44.00;;;;;;5134315;27;20064;-47
2022/02/13 12:15:38;;;;;;;1.90;1.00;;;16.40;44.00;;;;;;5136843;27;20027;-47
2022/02/13 12:18:12;;;;;;;1.38;0.95;;;16.40;43.90;;;;;;5137453;27;20018;-49
2022/02/13 12:20:39;;;;;;;1.20;0.90;;;16.40;44.00;;;;;;5137963;27;20097;-48
2022/02/13 12:23:09;;;;;;;1.40;1.05;;;16.40;44.00;;;;;;5138612;27;20007;-46
2022/02/13 12:25:36;;;;;;;1.88;1.02;;;16.40;43.90;;;;;;5138582;27;20021;-47
2022/02/13 12:28:03;;;;;;;2.97;1.25;;;16.40;43.90;;;;;;5137886;27;20008;-47
2022/02/13 12:30:29;;;;;;;1.00;0.90;;;16.40;44.00;;;;;;5139721;27;20098;-46
2022/02/13 12:32:59;;;;;;;1.30;1.00;;;16.40;44.00;;;;;;5138250;28;20543;-50
2022/02/13 12:35:32;;;;;;;1.50;0.93;;;16.30;43.90;;;;;;5136811;27;20015;-45
2022/02/13 12:37:59;;;;;;;1.60;1.00;;;16.40;43.90;;;;;;5137109;27;20035;-47
2022/02/13 12:40:32;;;;;;;1.80;1.30;;;16.40;43.90;;;;;;5138113;27;20015;-45
2022/02/13 12:43:03;;;;;;;1.65;1.20;;;16.40;43.90;;;;;;5138236;27;20039;-46
2022/02/13 12:45:29;;;;;;;;;;;16.40;44.50;;;;;;5137015;28;20022;-49
2022/02/13 12:47:58;;;;;;;1.48;1.17;;;16.40;43.90;;;;;;5135654;27;19904;-48